createdAt,value
2022-11-17T00:00:04.470Z,100.00
2022-11-17T00:02:07.816Z,100.00
2022-11-17T00:04:06.256Z,100.00
2022-11-17T00:06:05.217Z,100.00
2022-11-17T00:08:03.442Z,100.00
2022-11-17T00:10:01.667Z,100.00
2022-11-17T00:12:22.505Z,100.00
2022-11-17T00:14:41.085Z,100.00
2022-11-17T00:16:39.426Z,100.00
2022-11-17T00:18:55.267Z,100.00
2022-11-17T00:21:11.722Z,100.00
2022-11-17T00:23:09.809Z,100.00
2022-11-17T00:25:08.938Z,100.00
2022-11-17T00:27:09.068Z,100.00
2022-11-17T00:29:07.422Z,100.00
2022-11-17T00:31:23.973Z,100.00
2022-11-17T00:33:39.509Z,100.00
2022-11-17T00:35:37.835Z,100.00
2022-11-17T00:37:38.879Z,100.00
2022-11-17T00:39:37.238Z,100.00
2022-11-17T00:41:35.990Z,100.00
2022-11-17T00:43:35.820Z,100.00
2022-11-17T00:45:34.265Z,100.00
2022-11-17T00:47:37.501Z,100.00
2022-11-17T00:49:36.908Z,100.00
2022-11-17T00:51:35.709Z,100.00
2022-11-17T00:53:34.389Z,100.00
2022-11-17T00:55:32.949Z,100.00
2022-11-17T00:57:31.299Z,100.00
2022-11-17T00:59:30.971Z,100.00
2022-11-17T01:01:30.249Z,100.00
2022-11-17T01:03:28.698Z,100.00
2022-11-17T01:05:32.696Z,100.00
2022-11-17T01:07:31.281Z,100.00
2022-11-17T01:09:29.818Z,100.00
2022-11-17T01:11:28.872Z,100.00
2022-11-17T01:13:27.311Z,100.00
2022-11-17T01:15:27.852Z,100.00
2022-11-17T01:17:26.576Z,100.00
2022-11-17T01:19:25.700Z,100.00
2022-11-17T01:21:26.633Z,100.00
2022-11-17T01:23:27.836Z,100.00
2022-11-17T01:25:26.046Z,100.00
2022-11-17T01:27:24.424Z,100.00
2022-11-17T01:29:22.701Z,100.00
2022-11-17T01:31:24.637Z,100.00
2022-11-17T01:33:22.910Z,100.00
2022-11-17T01:35:21.068Z,100.00
2022-11-17T01:37:21.455Z,100.00
2022-11-17T01:39:19.871Z,100.00
2022-11-17T01:41:20.053Z,100.00
2022-11-17T01:43:18.424Z,100.00
2022-11-17T01:45:20.713Z,100.00
2022-11-17T01:47:24.197Z,100.00
2022-11-17T01:49:26.558Z,100.00
2022-11-17T01:51:25.162Z,100.00
2022-11-17T01:53:26.354Z,100.00
2022-11-17T01:55:27.032Z,100.00
2022-11-17T01:57:28.939Z,100.00
2022-11-17T01:59:31.237Z,100.00
2022-11-17T02:01:29.619Z,100.00
2022-11-17T02:03:29.949Z,100.00
2022-11-17T02:05:40.614Z,100.00
2022-11-17T02:07:40.766Z,100.00
2022-11-17T02:09:40.834Z,100.00
2022-11-17T02:11:39.089Z,100.00
2022-11-17T02:13:38.557Z,100.00
2022-11-17T02:15:37.047Z,100.00
2022-11-17T02:17:38.021Z,100.00
2022-11-17T02:19:41.362Z,100.00
2022-11-17T02:22:10.697Z,100.00
2022-11-17T02:24:37.880Z,100.00
2022-11-17T02:27:02.068Z,100.00
2022-11-17T02:29:10.841Z,100.00
2022-11-17T02:31:19.302Z,100.00
2022-11-17T02:33:28.817Z,100.00
2022-11-17T02:35:31.795Z,100.00
2022-11-17T02:37:38.565Z,100.00
2022-11-17T02:39:43.006Z,100.00
2022-11-17T02:41:51.355Z,100.00
2022-11-17T02:44:04.207Z,100.00
2022-11-17T02:46:08.728Z,100.00
2022-11-17T02:48:12.415Z,100.00
2022-11-17T02:50:12.635Z,100.00
2022-11-17T02:52:11.621Z,100.00
2022-11-17T02:54:10.573Z,100.00
2022-11-17T02:56:09.026Z,100.00
2022-11-17T02:58:12.232Z,100.00
2022-11-17T03:00:13.421Z,100.00
2022-11-17T03:02:51.123Z,100.00
2022-11-17T03:05:05.082Z,100.00
2022-11-17T03:07:15.566Z,100.00
2022-11-17T03:09:20.409Z,100.00
2022-11-17T03:11:29.541Z,100.00
2022-11-17T03:13:39.515Z,100.00
2022-11-17T03:15:48.470Z,100.00
2022-11-17T03:17:55.021Z,100.00
2022-11-17T03:19:59.134Z,100.00
2022-11-17T03:22:05.447Z,100.00
2022-11-17T03:24:09.024Z,100.00
2022-11-17T03:26:10.619Z,100.00
2022-11-17T03:28:12.677Z,100.00
2022-11-17T03:30:13.563Z,100.00
2022-11-17T03:32:13.223Z,100.00
2022-11-17T03:34:16.635Z,100.00
2022-11-17T03:36:17.443Z,100.00
2022-11-17T03:38:18.179Z,100.00
2022-11-17T03:40:21.017Z,100.00
2022-11-17T03:42:24.863Z,100.00
2022-11-17T03:44:25.988Z,100.00
2022-11-17T03:46:26.490Z,100.00
2022-11-17T03:48:30.095Z,100.00
2022-11-17T03:50:35.023Z,100.00
2022-11-17T03:52:35.022Z,100.00
2022-11-17T03:54:34.172Z,100.00
2022-11-17T03:56:39.466Z,100.00
2022-11-17T03:58:51.313Z,100.00
2022-11-17T04:00:53.942Z,100.00
2022-11-17T04:02:58.663Z,100.00
2022-11-17T04:05:09.418Z,100.00
2022-11-17T04:07:09.000Z,100.00
2022-11-17T04:09:07.295Z,100.00
2022-11-17T04:11:22.907Z,100.00
2022-11-17T04:13:38.556Z,100.00
2022-11-17T04:16:02.928Z,100.00
2022-11-17T04:18:01.198Z,100.00
2022-11-17T04:19:59.441Z,100.00
2022-11-17T04:21:57.587Z,100.00
2022-11-17T04:24:00.267Z,100.00
2022-11-17T04:26:16.698Z,100.00
2022-11-17T04:28:37.354Z,100.00
2022-11-17T04:30:35.600Z,100.00
2022-11-17T04:32:33.791Z,100.00
2022-11-17T04:34:32.071Z,100.00
2022-11-17T04:36:32.107Z,100.00
2022-11-17T04:38:30.703Z,100.00
2022-11-17T04:40:30.366Z,100.00
2022-11-17T04:42:28.831Z,100.00
2022-11-17T04:44:29.082Z,100.00
2022-11-17T04:46:28.437Z,100.00
2022-11-17T04:48:26.827Z,100.00
2022-11-17T04:50:25.087Z,100.00
2022-11-17T04:52:28.457Z,100.00
2022-11-17T04:54:28.118Z,100.00
2022-11-17T04:56:28.927Z,100.00
2022-11-17T04:58:27.376Z,100.00
2022-11-17T05:00:25.755Z,100.00
2022-11-17T05:02:24.211Z,100.00
2022-11-17T05:04:36.680Z,100.00
2022-11-17T05:06:36.792Z,100.00
2022-11-17T05:08:37.028Z,100.00
2022-11-17T05:10:52.913Z,100.00
2022-11-17T05:13:10.221Z,100.00
2022-11-17T05:15:09.540Z,100.00
2022-11-17T05:17:10.073Z,100.00
2022-11-17T05:19:10.937Z,100.00
2022-11-17T05:21:11.077Z,100.00
2022-11-17T05:23:26.995Z,100.00
2022-11-17T05:25:25.210Z,100.00
2022-11-17T05:27:24.445Z,100.00
2022-11-17T05:29:24.957Z,100.00
2022-11-17T05:31:23.450Z,100.00
2022-11-17T05:33:21.839Z,100.00
2022-11-17T05:35:20.047Z,100.00
2022-11-17T05:37:18.443Z,100.00
2022-11-17T05:39:16.694Z,100.00
2022-11-17T05:41:14.948Z,100.00
2022-11-17T05:43:13.221Z,100.00
2022-11-17T05:45:12.865Z,100.00
2022-11-17T05:47:11.072Z,100.00
2022-11-17T05:49:09.331Z,100.00
2022-11-17T05:51:07.860Z,100.00
2022-11-17T05:53:06.209Z,100.00
2022-11-17T05:55:07.604Z,100.00
2022-11-17T05:57:09.809Z,100.00
2022-11-17T05:59:16.563Z,100.00
2022-11-17T06:01:18.652Z,100.00
2022-11-17T06:03:22.164Z,100.00
2022-11-17T06:05:21.664Z,100.00
2022-11-17T06:07:20.745Z,100.00
2022-11-17T06:09:50.105Z,100.00
2022-11-17T06:11:48.351Z,100.00
2022-11-17T06:13:46.699Z,100.00
2022-11-17T06:15:45.004Z,100.00
2022-11-17T06:17:52.222Z,100.00
2022-11-17T06:19:55.332Z,100.00
2022-11-17T06:22:14.133Z,100.00
2022-11-17T06:24:12.387Z,100.00
2022-11-17T06:26:18.149Z,100.00
2022-11-17T06:28:20.430Z,100.00
2022-11-17T06:30:19.549Z,100.00
2022-11-17T06:32:20.981Z,100.00
2022-11-17T06:34:20.845Z,100.00
2022-11-17T06:36:19.314Z,100.00
2022-11-17T06:38:18.401Z,100.00
2022-11-17T06:40:17.388Z,100.00
2022-11-17T06:42:15.771Z,100.00
2022-11-17T06:44:13.989Z,100.00
2022-11-17T06:46:12.153Z,100.00
2022-11-17T06:48:12.584Z,100.00
2022-11-17T06:50:12.679Z,100.00
2022-11-17T06:52:11.719Z,100.00
2022-11-17T06:54:10.645Z,100.00
2022-11-17T06:56:09.735Z,100.00
2022-11-17T06:58:11.697Z,100.00
2022-11-17T07:00:11.450Z,100.00
2022-11-17T07:02:09.597Z,100.00
2022-11-17T07:04:08.970Z,100.00
2022-11-17T07:06:10.899Z,100.00
2022-11-17T07:08:09.973Z,100.00
2022-11-17T07:10:09.782Z,100.00
2022-11-17T07:12:08.228Z,100.00
2022-11-17T07:14:11.931Z,100.00
2022-11-17T07:16:12.730Z,100.00
2022-11-17T07:18:11.105Z,100.00
2022-11-17T07:20:10.732Z,100.00
2022-11-17T07:22:10.477Z,100.00
2022-11-17T07:24:09.158Z,100.00
2022-11-17T07:26:08.344Z,100.00
2022-11-17T07:28:07.028Z,100.00
2022-11-17T07:30:06.967Z,100.00
2022-11-17T07:32:05.367Z,100.00
2022-11-17T07:34:03.861Z,100.00
2022-11-17T07:36:06.519Z,100.00
2022-11-17T07:38:06.407Z,100.00
2022-11-17T07:40:04.866Z,100.00
2022-11-17T07:42:03.057Z,100.00
2022-11-17T07:44:01.315Z,100.00
2022-11-17T07:45:59.581Z,100.00
2022-11-17T07:47:59.407Z,100.00
2022-11-17T07:50:00.688Z,100.00
2022-11-17T07:51:59.096Z,100.00
2022-11-17T07:53:58.671Z,100.00
2022-11-17T07:55:57.304Z,100.00
2022-11-17T07:57:56.462Z,100.00
2022-11-17T07:59:54.787Z,100.00
2022-11-17T08:01:53.037Z,97.83
2022-11-17T08:03:51.306Z,95.65
2022-11-17T08:05:49.712Z,94.06
2022-11-17T08:07:57.657Z,93.81
2022-11-17T08:09:57.654Z,90.60
2022-11-17T08:11:57.749Z,89.08
2022-11-17T08:13:57.086Z,89.36
2022-11-17T08:15:57.337Z,90.51
2022-11-17T08:17:56.272Z,91.45
2022-11-17T08:19:54.650Z,91.78
2022-11-17T08:21:52.794Z,91.70
2022-11-17T08:23:52.000Z,93.54
2022-11-17T08:25:54.827Z,93.78
2022-11-17T08:27:56.252Z,93.26
2022-11-17T08:29:54.556Z,92.93
2022-11-17T08:31:52.966Z,92.19
2022-11-17T08:33:51.195Z,92.32
2022-11-17T08:35:49.692Z,92.05
2022-11-17T08:37:48.122Z,85.71
2022-11-17T08:39:46.448Z,78.03
2022-11-17T08:41:54.901Z,71.97
2022-11-17T08:43:53.177Z,63.94
2022-11-17T08:45:51.777Z,62.20
2022-11-17T08:47:50.176Z,58.86
2022-11-17T08:49:48.488Z,58.86
2022-11-17T08:51:46.929Z,51.91
2022-11-17T08:53:45.544Z,51.94
2022-11-17T08:55:44.068Z,55.25
2022-11-17T08:57:44.044Z,59.12
2022-11-17T08:59:42.434Z,63.54
2022-11-17T09:01:41.397Z,67.17
2022-11-17T09:03:40.099Z,68.32
2022-11-17T09:05:40.198Z,69.11
2022-11-17T09:07:38.898Z,69.40
2022-11-17T09:09:37.835Z,69.99
2022-11-17T09:11:45.560Z,69.70
2022-11-17T09:13:47.205Z,69.43
2022-11-17T09:15:45.732Z,68.33
2022-11-17T09:17:47.881Z,69.00
2022-11-17T09:19:46.214Z,70.54
2022-11-17T09:21:44.930Z,71.15
2022-11-17T09:23:44.627Z,72.11
2022-11-17T09:25:43.728Z,71.98
2022-11-17T09:27:42.194Z,73.11
2022-11-17T09:29:41.943Z,72.39
2022-11-17T09:31:40.332Z,72.32
2022-11-17T09:33:38.841Z,71.69
2022-11-17T09:35:37.082Z,71.00
2022-11-17T09:37:35.369Z,70.71
2022-11-17T09:39:33.504Z,71.16
2022-11-17T09:41:36.964Z,71.44
2022-11-17T09:43:39.676Z,72.84
2022-11-17T09:45:41.037Z,73.52
2022-11-17T09:47:45.088Z,73.89
2022-11-17T09:49:55.237Z,74.01
2022-11-17T09:52:01.877Z,73.06
2022-11-17T09:54:05.613Z,72.53
2022-11-17T09:56:08.549Z,71.69
2022-11-17T09:58:16.091Z,71.49
2022-11-17T10:00:16.778Z,71.12
2022-11-17T10:02:16.781Z,71.66
2022-11-17T10:04:18.738Z,71.68
2022-11-17T10:06:20.824Z,72.10
2022-11-17T10:08:21.803Z,72.33
2022-11-17T10:10:23.793Z,72.19
2022-11-17T10:12:23.886Z,72.59
2022-11-17T10:14:24.878Z,72.49
2022-11-17T10:16:23.503Z,72.24
2022-11-17T10:18:23.290Z,71.32
2022-11-17T10:20:22.087Z,70.81
2022-11-17T10:22:35.859Z,71.79
2022-11-17T10:24:35.686Z,72.68
2022-11-17T10:26:45.720Z,73.14
2022-11-17T10:28:44.393Z,73.62
2022-11-17T10:30:54.536Z,73.64
2022-11-17T10:32:54.222Z,73.89
2022-11-17T10:34:54.368Z,73.96
2022-11-17T10:36:52.490Z,74.26
2022-11-17T10:38:52.946Z,73.14
2022-11-17T10:40:53.346Z,73.63
2022-11-17T10:43:02.061Z,72.99
2022-11-17T10:45:02.586Z,72.50
2022-11-17T10:47:04.160Z,72.67
2022-11-17T10:49:05.222Z,72.73
2022-11-17T10:51:09.383Z,72.44
2022-11-17T10:53:22.216Z,73.17
2022-11-17T10:55:25.370Z,73.78
2022-11-17T10:57:27.762Z,74.62
2022-11-17T10:59:30.919Z,74.19
2022-11-17T11:01:33.986Z,73.78
2022-11-17T11:03:34.489Z,74.81
2022-11-17T11:05:33.013Z,75.20
2022-11-17T11:07:32.791Z,74.36
2022-11-17T11:09:31.921Z,75.58
2022-11-17T11:11:44.126Z,75.88
2022-11-17T11:13:49.681Z,75.23
2022-11-17T11:15:48.260Z,73.01
2022-11-17T11:17:46.399Z,72.91
2022-11-17T11:19:50.800Z,73.01
2022-11-17T11:22:14.657Z,71.55
2022-11-17T11:24:24.855Z,71.21
2022-11-17T11:26:43.691Z,71.31
2022-11-17T11:28:54.983Z,72.20
2022-11-17T11:31:02.781Z,73.34
2022-11-17T11:33:16.107Z,73.38
2022-11-17T11:35:34.668Z,72.63
2022-11-17T11:37:41.208Z,72.27
2022-11-17T11:39:50.691Z,71.80
2022-11-17T11:42:08.183Z,70.46
2022-11-17T11:44:25.514Z,70.08
2022-11-17T11:46:36.292Z,69.68
2022-11-17T11:48:38.129Z,68.96
2022-11-17T11:50:42.048Z,68.69
2022-11-17T11:52:45.700Z,68.67
2022-11-17T11:54:51.309Z,69.35
2022-11-17T11:56:49.848Z,70.43
2022-11-17T11:58:54.609Z,71.23
2022-11-17T12:00:56.652Z,71.58
2022-11-17T12:03:06.949Z,71.86
2022-11-17T12:05:16.636Z,71.99
2022-11-17T12:07:22.144Z,72.09
2022-11-17T12:09:53.003Z,72.90
2022-11-17T12:12:02.312Z,74.02
2022-11-17T12:14:02.712Z,74.87
2022-11-17T12:16:19.621Z,75.33
2022-11-17T12:18:33.476Z,76.41
2022-11-17T12:20:58.189Z,77.16
2022-11-17T12:23:11.690Z,77.42
2022-11-17T12:25:19.166Z,78.45
2022-11-17T12:27:43.191Z,78.21
2022-11-17T12:29:48.236Z,78.86
2022-11-17T12:31:47.891Z,80.27
2022-11-17T12:34:12.485Z,80.52
2022-11-17T12:36:30.828Z,80.85
2022-11-17T12:38:42.999Z,80.63
2022-11-17T12:40:46.956Z,79.37
2022-11-17T12:43:20.761Z,77.63
2022-11-17T12:45:19.349Z,75.70
2022-11-17T12:47:20.275Z,75.25
2022-11-17T12:49:28.374Z,74.03
2022-11-17T12:51:35.479Z,73.91
2022-11-17T12:53:49.794Z,74.31
2022-11-17T12:56:21.621Z,73.90
2022-11-17T12:58:28.359Z,73.82
2022-11-17T13:00:30.298Z,73.78
2022-11-17T13:02:39.757Z,73.65
2022-11-17T13:04:49.140Z,73.73
2022-11-17T13:07:04.825Z,73.92
2022-11-17T13:09:06.274Z,74.16
2022-11-17T13:11:11.777Z,74.60
2022-11-17T13:13:14.621Z,74.88
2022-11-17T13:15:23.800Z,75.19
2022-11-17T13:17:26.347Z,75.23
2022-11-17T13:19:34.310Z,75.49
2022-11-17T13:21:34.073Z,75.53
2022-11-17T13:23:35.100Z,75.52
2022-11-17T13:25:34.218Z,75.32
2022-11-17T13:27:33.805Z,75.35
2022-11-17T13:29:32.038Z,75.17
2022-11-17T13:31:30.403Z,75.77
2022-11-17T13:33:32.383Z,76.49
2022-11-17T13:35:35.714Z,77.01
2022-11-17T13:37:33.822Z,77.15
2022-11-17T13:39:32.493Z,78.02
2022-11-17T13:41:38.835Z,78.43
2022-11-17T13:43:41.041Z,78.96
2022-11-17T13:45:40.689Z,79.19
2022-11-17T13:47:45.604Z,80.15
2022-11-17T13:49:43.828Z,80.83
2022-11-17T13:51:44.863Z,81.89
2022-11-17T13:53:45.044Z,82.20
2022-11-17T13:55:46.276Z,82.38
2022-11-17T13:57:56.182Z,82.62
2022-11-17T13:59:57.171Z,82.85
2022-11-17T14:02:24.439Z,83.17
2022-11-17T14:04:24.788Z,83.70
2022-11-17T14:06:23.353Z,84.33
2022-11-17T14:08:27.121Z,84.89
2022-11-17T14:10:34.317Z,85.37
2022-11-17T14:12:32.818Z,85.46
2022-11-17T14:14:35.105Z,84.88
2022-11-17T14:16:38.774Z,85.27
2022-11-17T14:18:38.079Z,85.98
2022-11-17T14:20:37.113Z,85.89
2022-11-17T14:22:35.511Z,86.61
2022-11-17T14:24:33.831Z,87.24
2022-11-17T14:26:32.796Z,87.50
2022-11-17T14:28:31.207Z,87.93
2022-11-17T14:30:29.514Z,88.20
2022-11-17T14:32:29.212Z,87.73
2022-11-17T14:34:27.389Z,87.82
2022-11-17T14:36:25.919Z,88.27
2022-11-17T14:38:24.376Z,88.14
2022-11-17T14:40:22.853Z,88.65
2022-11-17T14:42:21.208Z,89.25
2022-11-17T14:44:19.604Z,89.37
2022-11-17T14:46:23.430Z,89.78
2022-11-17T14:48:23.063Z,90.51
2022-11-17T14:50:21.488Z,90.57
2022-11-17T14:52:19.801Z,90.06
2022-11-17T14:54:18.135Z,89.51
2022-11-17T14:56:19.174Z,89.05
2022-11-17T14:58:17.444Z,89.85
2022-11-17T15:00:20.624Z,90.31
2022-11-17T15:02:19.250Z,91.12
2022-11-17T15:04:48.837Z,91.68
2022-11-17T15:06:38.756Z,92.53
2022-11-17T15:08:37.078Z,92.62
2022-11-17T15:10:35.321Z,92.67
2022-11-17T15:12:33.704Z,92.64
2022-11-17T15:14:31.991Z,92.51
2022-11-17T15:16:30.245Z,92.45
2022-11-17T15:18:28.544Z,92.86
2022-11-17T15:20:29.664Z,91.79
2022-11-17T15:22:30.615Z,92.39
2022-11-17T15:24:28.870Z,92.92
2022-11-17T15:26:27.079Z,93.22
2022-11-17T15:28:29.079Z,92.77
2022-11-17T15:30:29.036Z,92.34
2022-11-17T15:32:27.294Z,92.16
2022-11-17T15:34:25.503Z,92.48
2022-11-17T15:36:25.657Z,92.75
2022-11-17T15:38:23.745Z,93.34
2022-11-17T15:40:21.938Z,94.01
2022-11-17T15:42:20.343Z,94.64
2022-11-17T15:44:20.745Z,95.66
2022-11-17T15:46:22.781Z,95.87
2022-11-17T15:48:20.966Z,96.21
2022-11-17T15:50:21.615Z,97.35
2022-11-17T15:52:41.428Z,98.60
2022-11-17T15:54:39.678Z,99.09
2022-11-17T15:56:38.139Z,100.00
2022-11-17T15:58:36.845Z,100.00
2022-11-17T16:00:35.486Z,100.00
2022-11-17T16:02:33.769Z,100.00
2022-11-17T16:04:32.163Z,100.00
2022-11-17T16:06:32.030Z,100.00
2022-11-17T16:08:31.923Z,100.00
2022-11-17T16:10:30.321Z,100.00
2022-11-17T16:12:28.685Z,100.00
2022-11-17T16:14:32.707Z,100.00
2022-11-17T16:16:33.281Z,100.00
2022-11-17T16:18:33.450Z,100.00
2022-11-17T16:20:31.825Z,100.00
2022-11-17T16:22:30.073Z,100.00
2022-11-17T16:24:30.766Z,100.00
2022-11-17T16:26:33.337Z,100.00
2022-11-17T16:28:31.605Z,100.00
2022-11-17T16:30:35.304Z,100.00
2022-11-17T16:32:34.115Z,100.00
2022-11-17T16:34:39.330Z,100.00
2022-11-17T16:36:40.172Z,100.00
2022-11-17T16:38:49.789Z,100.00
2022-11-17T16:41:00.927Z,100.00
2022-11-17T16:42:59.386Z,100.00
2022-11-17T16:44:57.927Z,100.00
2022-11-17T16:46:56.891Z,100.00
2022-11-17T16:48:58.227Z,100.00
2022-11-17T16:50:56.372Z,100.00
2022-11-17T16:52:54.809Z,100.00
2022-11-17T16:54:59.196Z,100.00
2022-11-17T16:57:03.021Z,100.00
2022-11-17T16:59:01.950Z,100.00
2022-11-17T17:01:12.394Z,100.00
2022-11-17T17:03:11.056Z,100.00
2022-11-17T17:05:09.715Z,100.00
2022-11-17T17:07:08.140Z,100.00
2022-11-17T17:09:11.283Z,100.00
2022-11-17T17:11:11.479Z,100.00
2022-11-17T17:13:11.265Z,100.00
2022-11-17T17:15:16.501Z,100.00
2022-11-17T17:17:18.005Z,100.00
2022-11-17T17:19:17.372Z,100.00
2022-11-17T17:21:17.945Z,100.00
2022-11-17T17:23:16.184Z,100.00
2022-11-17T17:25:16.867Z,100.00
2022-11-17T17:27:15.132Z,100.00
2022-11-17T17:29:15.046Z,100.00
2022-11-17T17:31:20.954Z,100.00
2022-11-17T17:33:20.389Z,100.00
2022-11-17T17:35:18.872Z,100.00
2022-11-17T17:37:19.230Z,100.00
2022-11-17T17:39:18.152Z,100.00
2022-11-17T17:41:22.511Z,100.00
2022-11-17T17:43:23.760Z,100.00
2022-11-17T17:45:23.452Z,100.00
2022-11-17T17:47:21.877Z,100.00
2022-11-17T17:49:22.855Z,100.00
2022-11-17T17:51:24.115Z,100.00
2022-11-17T17:53:22.364Z,100.00
2022-11-17T17:55:29.147Z,100.00
2022-11-17T17:57:32.772Z,100.00
2022-11-17T17:59:32.232Z,100.00
2022-11-17T18:01:33.271Z,100.00
2022-11-17T18:03:31.534Z,100.00
2022-11-17T18:05:31.764Z,100.00
2022-11-17T18:07:30.094Z,100.00
2022-11-17T18:09:28.717Z,100.00
2022-11-17T18:11:27.192Z,100.00
2022-11-17T18:13:25.470Z,100.00
2022-11-17T18:15:32.436Z,100.00
2022-11-17T18:17:32.378Z,100.00
2022-11-17T18:19:33.137Z,100.00
2022-11-17T18:21:32.641Z,100.00
2022-11-17T18:23:34.316Z,100.00
2022-11-17T18:25:34.038Z,100.00
2022-11-17T18:27:32.421Z,100.00
2022-11-17T18:29:30.649Z,100.00
2022-11-17T18:31:31.274Z,100.00
2022-11-17T18:33:31.103Z,100.00
2022-11-17T18:35:29.409Z,100.00
2022-11-17T18:37:30.180Z,100.00
2022-11-17T18:39:31.319Z,100.00
2022-11-17T18:41:34.173Z,100.00
2022-11-17T18:43:33.340Z,100.00
2022-11-17T18:45:32.090Z,100.00
2022-11-17T18:47:30.395Z,100.00
2022-11-17T18:49:34.648Z,100.00
2022-11-17T18:51:34.376Z,100.00
2022-11-17T18:53:35.192Z,100.00
2022-11-17T18:55:36.682Z,100.00
2022-11-17T18:57:35.024Z,100.00
2022-11-17T18:59:36.348Z,100.00
2022-11-17T19:01:38.224Z,100.00
2022-11-17T19:03:37.455Z,100.00
2022-11-17T19:05:37.006Z,100.00
2022-11-17T19:07:43.810Z,100.00
2022-11-17T19:09:51.902Z,100.00
2022-11-17T19:12:01.297Z,100.00
2022-11-17T19:14:02.418Z,100.00
2022-11-17T19:16:10.251Z,100.00
2022-11-17T19:18:11.006Z,100.00
2022-11-17T19:20:13.522Z,100.00
2022-11-17T19:22:13.337Z,100.00
2022-11-17T19:24:11.933Z,100.00
2022-11-17T19:26:54.266Z,100.00
2022-11-17T19:29:02.773Z,100.00
2022-11-17T19:31:07.484Z,100.00
2022-11-17T19:33:05.886Z,100.00
2022-11-17T19:35:16.937Z,100.00
2022-11-17T19:37:19.773Z,100.00
2022-11-17T19:39:18.291Z,100.00
2022-11-17T19:41:18.525Z,100.00
2022-11-17T19:43:24.626Z,100.00
2022-11-17T19:45:25.395Z,100.00
2022-11-17T19:47:30.681Z,100.00
2022-11-17T19:49:33.546Z,100.00
2022-11-17T19:51:43.482Z,100.00
2022-11-17T19:53:45.730Z,100.00
2022-11-17T19:55:54.421Z,100.00
2022-11-17T19:57:54.842Z,100.00
2022-11-17T20:00:05.407Z,100.00
2022-11-17T20:02:19.066Z,100.00
2022-11-17T20:06:37.129Z,100.00
2022-11-17T20:08:42.532Z,100.00
2022-11-17T20:10:47.322Z,100.00
2022-11-17T20:12:47.239Z,100.00
2022-11-17T20:14:51.488Z,100.00
2022-11-17T20:17:00.084Z,100.00
2022-11-17T20:19:01.365Z,100.00
2022-11-17T20:21:00.141Z,100.00
2022-11-17T20:22:58.582Z,100.00
2022-11-17T20:25:03.479Z,100.00
2022-11-17T20:27:08.019Z,100.00
2022-11-17T20:29:19.571Z,100.00
2022-11-17T20:31:30.352Z,100.00
2022-11-17T20:33:36.933Z,100.00
2022-11-17T20:35:38.912Z,100.00
2022-11-17T20:37:37.701Z,100.00
2022-11-17T20:39:41.864Z,100.00
2022-11-17T20:41:45.223Z,100.00
2022-11-17T20:43:52.021Z,100.00
2022-11-17T20:45:57.480Z,100.00
2022-11-17T20:47:56.622Z,100.00
2022-11-17T20:49:58.327Z,100.00
2022-11-17T20:52:13.069Z,100.00
2022-11-17T20:54:17.307Z,100.00
2022-11-17T20:56:22.161Z,100.00
2022-11-17T20:58:22.542Z,100.00
2022-11-17T21:00:28.421Z,100.00
2022-11-17T21:02:27.227Z,100.00
2022-11-17T21:04:25.899Z,100.00
2022-11-17T21:06:24.344Z,100.00
2022-11-17T21:08:25.616Z,100.00
2022-11-17T21:10:25.788Z,100.00
2022-11-17T21:12:24.716Z,100.00
2022-11-17T21:14:28.197Z,100.00
2022-11-17T21:16:28.399Z,100.00
2022-11-17T21:18:38.232Z,100.00
2022-11-17T21:20:41.295Z,100.00
2022-11-17T21:22:39.598Z,100.00
2022-11-17T21:24:37.935Z,100.00
2022-11-17T21:26:36.239Z,100.00
2022-11-17T21:28:42.368Z,100.00
2022-11-17T21:30:40.433Z,100.00
2022-11-17T21:32:44.166Z,100.00
2022-11-17T21:34:47.041Z,100.00
2022-11-17T21:36:50.358Z,100.00
2022-11-17T21:38:48.816Z,100.00
2022-11-17T21:40:49.359Z,100.00
2022-11-17T21:42:47.714Z,100.00
2022-11-17T21:44:46.001Z,100.00
2022-11-17T21:46:44.366Z,100.00
2022-11-17T21:48:44.154Z,100.00
2022-11-17T21:50:44.740Z,100.00
2022-11-17T21:52:45.804Z,100.00
2022-11-17T21:54:44.087Z,100.00
2022-11-17T21:56:42.342Z,100.00
2022-11-17T21:58:41.453Z,100.00
2022-11-17T22:00:39.714Z,100.00
2022-11-17T22:02:37.924Z,100.00
2022-11-17T22:04:37.584Z,100.00
2022-11-17T22:06:36.077Z,100.00
2022-11-17T22:08:37.413Z,100.00
2022-11-17T22:10:36.914Z,100.00
2022-11-17T22:12:35.182Z,100.00
2022-11-17T22:14:33.430Z,100.00
2022-11-17T22:16:32.005Z,100.00
2022-11-17T22:18:30.430Z,100.00
2022-11-17T22:20:30.068Z,100.00
2022-11-17T22:22:28.275Z,100.00
2022-11-17T22:24:26.663Z,100.00
2022-11-17T22:26:25.224Z,100.00
2022-11-17T22:28:25.073Z,100.00
2022-11-17T22:30:23.273Z,100.00
2022-11-17T22:32:21.624Z,100.00
2022-11-17T22:34:23.048Z,100.00
2022-11-17T22:36:22.686Z,100.00
2022-11-17T22:38:20.948Z,100.00
2022-11-17T22:40:19.416Z,100.00
2022-11-17T22:42:18.804Z,100.00
2022-11-17T22:44:17.868Z,100.00
2022-11-17T22:46:16.102Z,100.00
2022-11-17T22:48:14.236Z,100.00
2022-11-17T22:50:12.604Z,100.00
2022-11-17T22:52:16.202Z,100.00
2022-11-17T22:54:14.498Z,100.00
2022-11-17T22:56:13.161Z,100.00
2022-11-17T22:58:11.697Z,100.00
2022-11-17T23:00:14.279Z,100.00
2022-11-17T23:02:12.606Z,100.00
2022-11-17T23:04:12.366Z,100.00
2022-11-17T23:06:10.515Z,100.00
2022-11-17T23:08:10.223Z,100.00
2022-11-17T23:10:09.373Z,100.00
2022-11-17T23:12:07.935Z,100.00
2022-11-17T23:14:06.913Z,100.00
2022-11-17T23:16:06.078Z,100.00
2022-11-17T23:18:04.402Z,100.00
2022-11-17T23:20:03.287Z,100.00
2022-11-17T23:22:01.989Z,100.00
2022-11-17T23:24:05.085Z,100.00
2022-11-17T23:26:06.793Z,100.00
2022-11-17T23:28:05.223Z,100.00
2022-11-17T23:30:03.792Z,100.00
2022-11-17T23:32:02.089Z,100.00
2022-11-17T23:34:00.538Z,100.00
2022-11-17T23:35:59.034Z,100.00
2022-11-17T23:37:57.243Z,100.00
2022-11-17T23:39:56.913Z,100.00
2022-11-17T23:41:55.325Z,100.00
2022-11-17T23:43:55.113Z,100.00
2022-11-17T23:45:53.614Z,100.00
2022-11-17T23:47:51.758Z,100.00
2022-11-17T23:49:50.252Z,100.00
2022-11-17T23:51:48.497Z,100.00
2022-11-17T23:53:47.434Z,100.00
2022-11-17T23:55:55.291Z,100.00
2022-11-17T23:57:54.031Z,100.00
2022-11-17T23:59:52.192Z,100.00
